createdAt,value
2022-08-05T00:01:30.752Z,20.06
2022-08-05T00:04:03.642Z,20.02
2022-08-05T00:06:33.372Z,20.00
2022-08-05T00:09:02.410Z,19.98
2022-08-05T00:11:34.726Z,19.94
2022-08-05T00:14:11.986Z,19.91
2022-08-05T00:16:52.836Z,19.89
2022-08-05T00:19:21.513Z,19.88
2022-08-05T00:21:48.979Z,19.84
2022-08-05T00:24:16.260Z,19.82
2022-08-05T00:26:50.792Z,19.78
2022-08-05T00:29:19.242Z,19.77
2022-08-05T00:32:10.081Z,19.73
2022-08-05T00:34:54.890Z,19.71
2022-08-05T00:37:22.666Z,19.68
2022-08-05T00:39:58.850Z,19.64
2022-08-05T00:42:32.542Z,19.59
2022-08-05T00:44:59.474Z,19.54
2022-08-05T00:47:26.130Z,19.51
2022-08-05T00:49:58.389Z,19.46
2022-08-05T00:52:28.781Z,19.41
2022-08-05T00:54:56.126Z,19.41
2022-08-05T00:57:23.110Z,19.38
2022-08-05T00:59:52.551Z,19.36
2022-08-05T01:02:19.111Z,19.34
2022-08-05T01:04:45.786Z,19.33
2022-08-05T01:07:17.998Z,19.30
2022-08-05T01:09:44.953Z,19.32
2022-08-05T01:12:20.086Z,19.34
2022-08-05T01:15:03.896Z,19.38
2022-08-05T01:17:43.987Z,19.37
2022-08-05T01:20:29.890Z,19.42
2022-08-05T01:23:34.738Z,19.45
2022-08-05T01:26:26.260Z,19.46
2022-08-05T01:29:04.324Z,19.49
2022-08-05T01:31:44.811Z,19.50
2022-08-05T01:34:26.801Z,19.52
2022-08-05T01:37:03.984Z,19.53
2022-08-05T01:39:46.017Z,19.50
2022-08-05T01:42:17.034Z,19.53
2022-08-05T01:44:45.685Z,19.55
2022-08-05T01:47:21.988Z,19.54
2022-08-05T01:50:02.037Z,19.55
2022-08-05T01:52:31.658Z,19.54
2022-08-05T01:55:04.559Z,19.56
2022-08-05T01:58:10.722Z,19.53
2022-08-05T02:00:30.755Z,19.55
2022-08-05T02:03:34.175Z,19.55
2022-08-05T02:06:03.429Z,19.50
2022-08-05T02:08:54.790Z,19.47
2022-08-05T02:11:32.740Z,19.44
2022-08-05T02:14:15.603Z,19.46
2022-08-05T02:16:52.742Z,19.47
2022-08-05T02:19:34.548Z,19.49
2022-08-05T02:22:25.416Z,19.45
2022-08-05T02:25:00.067Z,19.44
2022-08-05T02:27:30.226Z,19.42
2022-08-05T02:30:14.693Z,19.43
2022-08-05T02:32:43.432Z,19.42
2022-08-05T02:35:27.698Z,19.43
2022-08-05T02:37:56.592Z,19.41
2022-08-05T02:40:27.559Z,19.37
2022-08-05T02:42:56.444Z,19.36
2022-08-05T02:45:25.348Z,19.33
2022-08-05T02:48:11.441Z,19.30
2022-08-05T02:50:43.811Z,19.28
2022-08-05T02:53:19.083Z,19.25
2022-08-05T02:55:54.066Z,19.21
2022-08-05T02:58:23.159Z,19.20
2022-08-05T03:00:56.326Z,19.18
2022-08-05T03:03:23.599Z,19.16
2022-08-05T03:06:54.183Z,19.15
2022-08-05T03:08:42.722Z,19.11
2022-08-05T03:11:56.042Z,19.14
2022-08-05T03:14:13.839Z,19.07
2022-08-05T03:16:41.315Z,19.05
2022-08-05T03:19:12.790Z,19.00
2022-08-05T03:21:48.623Z,18.96
2022-08-05T03:24:29.621Z,18.94
2022-08-05T03:26:58.604Z,18.89
2022-08-05T03:29:46.065Z,18.87
2022-08-05T03:32:14.271Z,18.81
2022-08-05T03:34:41.603Z,18.76
2022-08-05T03:37:08.040Z,18.73
2022-08-05T03:39:47.198Z,18.69
2022-08-05T03:42:21.191Z,18.61
2022-08-05T03:44:47.672Z,18.60
2022-08-05T03:47:14.249Z,18.57
2022-08-05T03:49:51.444Z,18.52
2022-08-05T03:52:38.382Z,18.49
2022-08-05T03:56:05.120Z,18.46
2022-08-05T03:58:10.695Z,18.42
2022-08-05T04:00:39.816Z,18.39
2022-08-05T04:03:26.629Z,18.36
2022-08-05T04:05:57.641Z,18.35
2022-08-05T04:08:34.953Z,18.32
2022-08-05T04:11:05.941Z,18.32
2022-08-05T04:13:50.155Z,18.31
2022-08-05T04:16:25.370Z,18.32
2022-08-05T04:19:00.076Z,18.30
2022-08-05T04:22:08.931Z,18.28
2022-08-05T04:24:19.704Z,18.27
2022-08-05T04:26:49.819Z,18.32
2022-08-05T04:29:16.436Z,18.32
2022-08-05T04:31:43.099Z,18.31
2022-08-05T04:34:18.303Z,18.32
2022-08-05T04:36:50.179Z,18.33
2022-08-05T04:39:18.579Z,18.33
2022-08-05T04:41:45.816Z,18.34
2022-08-05T04:44:14.695Z,18.37
2022-08-05T04:46:47.551Z,18.38
2022-08-05T04:49:15.274Z,18.38
2022-08-05T04:51:43.572Z,18.40
2022-08-05T04:54:10.128Z,18.40
2022-08-05T04:56:38.553Z,18.43
2022-08-05T04:59:22.906Z,18.45
2022-08-05T05:02:06.954Z,18.47
2022-08-05T05:04:47.890Z,18.52
2022-08-05T05:07:21.179Z,18.56
2022-08-05T05:09:55.893Z,18.60
2022-08-05T05:12:24.255Z,18.64
2022-08-05T05:14:54.052Z,18.69
2022-08-05T05:17:24.266Z,18.75
2022-08-05T05:19:56.466Z,18.81
2022-08-05T05:22:26.488Z,18.84
2022-08-05T05:24:59.893Z,18.94
2022-08-05T05:27:41.799Z,18.95
2022-08-05T05:30:29.358Z,19.08
2022-08-05T05:33:00.639Z,19.17
2022-08-05T05:35:34.456Z,19.24
2022-08-05T05:38:06.369Z,19.35
2022-08-05T05:40:36.164Z,19.37
2022-08-05T05:43:02.994Z,19.40
2022-08-05T05:45:29.784Z,19.41
2022-08-05T05:48:05.432Z,19.44
2022-08-05T05:50:43.928Z,19.42
2022-08-05T05:53:22.617Z,19.45
2022-08-05T05:55:51.710Z,19.42
2022-08-05T05:58:31.719Z,19.43
2022-08-05T06:01:11.971Z,19.41
2022-08-05T06:04:00.352Z,19.41
2022-08-05T06:06:28.030Z,19.43
2022-08-05T06:08:58.478Z,19.44
2022-08-05T06:11:25.042Z,19.48
2022-08-05T06:13:54.171Z,19.52
2022-08-05T06:16:28.320Z,19.62
2022-08-05T06:19:00.796Z,19.70
2022-08-05T06:21:35.721Z,19.77
2022-08-05T06:24:05.081Z,19.95
2022-08-05T06:26:33.991Z,20.05
2022-08-05T06:29:03.289Z,20.11
2022-08-05T06:31:32.177Z,20.17
2022-08-05T06:34:07.701Z,20.28
2022-08-05T06:36:56.937Z,20.38
2022-08-05T06:39:22.325Z,20.47
2022-08-05T06:41:53.522Z,20.54
2022-08-05T06:44:19.924Z,20.63
2022-08-05T06:46:50.723Z,20.69
2022-08-05T06:49:17.841Z,20.75
2022-08-05T06:51:45.575Z,20.80
2022-08-05T06:54:18.908Z,20.87
2022-08-05T06:56:54.960Z,20.92
2022-08-05T06:59:38.535Z,21.04
2022-08-05T07:02:05.417Z,21.12
2022-08-05T07:04:31.894Z,21.21
2022-08-05T07:06:59.773Z,21.33
2022-08-05T07:09:26.250Z,21.41
2022-08-05T07:12:00.630Z,21.52
2022-08-05T07:14:45.945Z,21.57
2022-08-05T07:17:58.837Z,21.61
2022-08-05T07:22:45.772Z,21.62
2022-08-05T07:25:54.095Z,21.57
2022-08-05T07:28:05.925Z,21.56
2022-08-05T07:30:38.849Z,21.49
2022-08-05T07:33:09.748Z,21.49
2022-08-05T07:36:03.793Z,21.41
2022-08-05T07:38:33.510Z,21.37
2022-08-05T07:41:17.184Z,21.31
2022-08-05T07:43:49.217Z,21.23
2022-08-05T07:46:24.295Z,21.17
2022-08-05T07:49:03.591Z,21.08
2022-08-05T07:51:37.268Z,21.05
2022-08-05T07:54:05.295Z,20.97
2022-08-05T07:56:39.383Z,20.88
2022-08-05T07:59:18.196Z,20.78
2022-08-05T08:01:52.053Z,20.75
2022-08-05T08:04:37.419Z,20.70
2022-08-05T08:07:07.477Z,20.60
2022-08-05T08:09:34.504Z,20.57
2022-08-05T08:12:09.053Z,20.49
2022-08-05T08:14:42.367Z,20.39
2022-08-05T08:17:21.304Z,20.29
2022-08-05T08:20:22.113Z,20.23
2022-08-05T08:22:35.193Z,20.20
2022-08-05T08:25:02.746Z,20.16
2022-08-05T08:27:40.082Z,20.14
2022-08-05T08:30:19.569Z,20.13
2022-08-05T08:32:56.881Z,20.13
2022-08-05T08:35:26.542Z,20.12
2022-08-05T08:37:53.591Z,20.11
2022-08-05T08:40:23.708Z,20.13
2022-08-05T08:42:53.017Z,20.05
2022-08-05T08:45:26.547Z,20.09
2022-08-05T08:48:10.726Z,20.09
2022-08-05T08:51:23.189Z,20.12
2022-08-05T08:53:36.372Z,20.13
2022-08-05T08:56:06.610Z,20.19
2022-08-05T08:58:37.147Z,20.21
2022-08-05T09:01:15.870Z,20.24
2022-08-05T09:03:46.508Z,20.28
2022-08-05T09:06:17.189Z,20.50
2022-08-05T09:08:46.770Z,20.37
2022-08-05T09:11:14.853Z,20.40
2022-08-05T09:14:00.816Z,20.42
2022-08-05T09:16:29.343Z,20.44
2022-08-05T09:18:56.074Z,20.44
2022-08-05T09:22:22.000Z,20.48
2022-08-05T09:24:15.534Z,20.47
2022-08-05T09:26:43.562Z,20.39
2022-08-05T09:29:10.341Z,20.39
2022-08-05T09:32:41.685Z,20.35
2022-08-05T09:34:23.361Z,20.36
2022-08-05T09:36:55.630Z,20.38
2022-08-05T09:39:41.935Z,20.35
2022-08-05T09:42:22.955Z,20.34
2022-08-05T09:44:56.691Z,20.33
2022-08-05T09:47:48.112Z,20.34
2022-08-05T09:50:13.778Z,20.51
2022-08-05T09:52:45.394Z,20.37
2022-08-05T09:55:56.676Z,20.34
2022-08-05T09:57:59.959Z,20.35
2022-08-05T10:00:27.653Z,20.30
2022-08-05T10:02:54.757Z,20.31
2022-08-05T10:05:27.100Z,20.28
2022-08-05T10:08:35.407Z,20.28
2022-08-05T10:10:53.843Z,20.23
2022-08-05T10:13:45.645Z,20.18
2022-08-05T10:16:42.027Z,20.12
2022-08-05T10:19:23.449Z,19.95
2022-08-05T10:21:59.008Z,19.91
2022-08-05T10:24:27.222Z,19.83
2022-08-05T10:27:00.315Z,19.81
2022-08-05T10:30:41.984Z,19.76
2022-08-05T10:32:54.508Z,19.68
2022-08-05T10:35:03.461Z,19.66
2022-08-05T10:37:40.047Z,19.63
2022-08-05T10:40:34.623Z,19.69
2022-08-05T10:43:35.922Z,19.66
2022-08-05T10:46:06.331Z,19.63
2022-08-05T10:48:56.481Z,19.59
2022-08-05T10:51:28.969Z,19.57
2022-08-05T10:54:01.832Z,19.55
2022-08-05T10:56:49.285Z,19.54
2022-08-05T11:00:03.101Z,19.45
2022-08-05T11:02:34.749Z,19.35
2022-08-05T11:05:05.783Z,19.39
2022-08-05T11:07:32.771Z,19.36
2022-08-05T11:10:27.234Z,19.31
2022-08-05T11:12:55.908Z,19.28
2022-08-05T11:16:00.174Z,19.31
2022-08-05T11:18:34.037Z,19.37
2022-08-05T11:21:06.285Z,19.33
2022-08-05T11:24:05.225Z,19.36
2022-08-05T11:26:40.484Z,19.34
2022-08-05T11:29:40.897Z,19.38
2022-08-05T11:32:26.340Z,19.31
2022-08-05T11:34:54.338Z,19.26
2022-08-05T11:38:28.947Z,19.29
2022-08-05T11:41:03.504Z,19.25
2022-08-05T11:44:12.546Z,19.22
2022-08-05T11:47:14.032Z,19.15
2022-08-05T11:49:50.906Z,19.14
2022-08-05T11:52:29.047Z,19.21
2022-08-05T11:54:57.398Z,19.21
2022-08-05T11:58:08.176Z,19.29
2022-08-05T12:00:31.205Z,19.35
2022-08-05T12:02:57.887Z,19.36
2022-08-05T12:05:32.404Z,19.38
2022-08-05T12:08:10.087Z,19.37
2022-08-05T12:10:45.425Z,19.42
2022-08-05T12:13:16.830Z,19.44
2022-08-05T12:15:49.910Z,19.52
2022-08-05T12:18:20.569Z,19.63
2022-08-05T12:20:50.645Z,19.66
2022-08-05T12:23:17.118Z,19.75
2022-08-05T12:25:56.791Z,19.87
2022-08-05T12:28:32.528Z,19.98
2022-08-05T12:31:02.066Z,20.08
2022-08-05T12:33:37.234Z,20.17
2022-08-05T12:36:09.530Z,20.24
2022-08-05T12:38:41.103Z,20.42
2022-08-05T12:41:12.852Z,20.49
2022-08-05T12:43:57.230Z,20.65
2022-08-05T12:46:31.575Z,20.73
2022-08-05T12:49:13.594Z,20.86
2022-08-05T12:52:10.451Z,21.02
2022-08-05T12:54:33.275Z,21.20
2022-08-05T12:57:09.203Z,21.53
2022-08-05T13:01:59.953Z,21.89
2022-08-05T13:02:36.064Z,22.19
2022-08-05T13:05:06.423Z,22.59
2022-08-05T13:08:00.115Z,22.91
2022-08-05T13:10:20.467Z,23.26
2022-08-05T13:12:57.784Z,23.50
2022-08-05T13:15:41.541Z,23.71
2022-08-05T13:18:20.850Z,23.97
2022-08-05T13:20:49.720Z,24.12
2022-08-05T13:23:22.142Z,24.27
2022-08-05T13:25:52.152Z,24.38
2022-08-05T13:28:25.678Z,24.50
2022-08-05T13:30:53.286Z,24.60
2022-08-05T13:34:21.551Z,24.66
2022-08-05T13:36:06.752Z,24.75
2022-08-05T13:38:38.291Z,24.84
2022-08-05T13:41:08.624Z,24.85
2022-08-05T13:43:45.689Z,24.90
2022-08-05T13:46:44.069Z,24.90
2022-08-05T13:49:11.756Z,24.95
2022-08-05T13:51:40.830Z,24.92
2022-08-05T13:54:12.605Z,24.98
2022-08-05T13:56:45.282Z,24.98
2022-08-05T13:59:21.056Z,25.00
2022-08-05T14:01:58.209Z,24.97
2022-08-05T14:04:49.190Z,24.91
2022-08-05T14:07:56.527Z,24.89
2022-08-05T14:10:10.571Z,24.88
2022-08-05T14:12:37.439Z,24.87
2022-08-05T14:16:04.879Z,24.84
2022-08-05T14:17:55.048Z,24.79
2022-08-05T14:20:27.323Z,24.71
2022-08-05T14:22:54.519Z,24.64
2022-08-05T14:25:22.496Z,24.61
2022-08-05T14:27:54.655Z,24.57
2022-08-05T14:30:21.705Z,24.57
2022-08-05T14:32:48.855Z,24.60
2022-08-05T14:35:16.189Z,24.61
2022-08-05T14:37:52.124Z,24.60
2022-08-05T14:40:21.602Z,24.56
2022-08-05T14:42:51.338Z,24.53
2022-08-05T14:45:18.700Z,24.49
2022-08-05T14:48:02.948Z,24.51
2022-08-05T14:50:32.168Z,24.56
2022-08-05T14:52:59.595Z,24.63
2022-08-05T14:55:28.590Z,24.74
2022-08-05T14:58:11.177Z,24.81
2022-08-05T15:00:39.704Z,24.88
2022-08-05T15:03:33.949Z,24.87
2022-08-05T15:06:12.664Z,24.86
2022-08-05T15:08:59.673Z,24.78
2022-08-05T15:11:52.564Z,24.62
2022-08-05T15:14:33.584Z,24.51
2022-08-05T15:17:01.488Z,24.35
2022-08-05T15:19:30.425Z,24.25
2022-08-05T15:21:59.963Z,24.09
2022-08-05T15:24:27.567Z,23.90
2022-08-05T15:26:53.962Z,23.65
2022-08-05T15:29:22.893Z,23.25
2022-08-05T15:31:52.771Z,22.91
2022-08-05T15:34:33.209Z,22.49
2022-08-05T15:37:06.828Z,22.14
2022-08-05T15:41:01.277Z,21.79
2022-08-05T15:42:50.064Z,21.57
2022-08-05T15:45:15.084Z,21.41
2022-08-05T15:47:43.653Z,21.32
2022-08-05T15:50:15.390Z,21.31
2022-08-05T15:52:53.440Z,21.32
2022-08-05T15:55:24.891Z,21.32
2022-08-05T15:58:09.884Z,21.46
2022-08-05T16:00:57.109Z,21.50
2022-08-05T16:03:30.410Z,21.57
2022-08-05T16:05:59.437Z,21.65
2022-08-05T16:08:30.373Z,21.70
2022-08-05T16:10:57.947Z,21.80
2022-08-05T16:13:34.147Z,21.86
2022-08-05T16:16:01.349Z,21.98
2022-08-05T16:18:29.979Z,22.03
2022-08-05T16:20:56.440Z,22.10
2022-08-05T16:23:22.985Z,22.14
2022-08-05T16:25:49.821Z,22.28
2022-08-05T16:28:22.287Z,22.37
2022-08-05T16:30:52.092Z,22.49
2022-08-05T16:33:19.319Z,22.61
2022-08-05T16:35:49.881Z,22.69
2022-08-05T16:38:25.683Z,22.77
2022-08-05T16:41:00.147Z,22.83
2022-08-05T16:43:32.911Z,22.84
2022-08-05T16:46:04.549Z,22.79
2022-08-05T16:48:38.327Z,22.82
2022-08-05T16:51:09.029Z,22.90
2022-08-05T16:54:05.366Z,22.94
2022-08-05T16:56:24.527Z,22.93
2022-08-05T16:58:51.199Z,22.93
2022-08-05T17:01:18.896Z,22.78
2022-08-05T17:03:45.824Z,22.56
2022-08-05T17:06:12.585Z,22.30
2022-08-05T17:08:53.151Z,22.07
2022-08-05T17:11:23.747Z,21.88
2022-08-05T17:14:00.435Z,21.80
2022-08-05T17:16:33.255Z,21.77
2022-08-05T17:19:02.210Z,21.82
2022-08-05T17:21:35.672Z,21.89
2022-08-05T17:24:19.689Z,21.94
2022-08-05T17:26:52.715Z,21.95
2022-08-05T17:29:22.459Z,21.90
2022-08-05T17:32:00.642Z,21.82
2022-08-05T17:34:30.038Z,21.76
2022-08-05T17:36:58.681Z,21.66
2022-08-05T17:39:34.131Z,21.67
2022-08-05T17:42:20.388Z,21.57
2022-08-05T17:44:51.381Z,21.52
2022-08-05T17:47:22.470Z,21.50
2022-08-05T17:50:00.582Z,21.53
2022-08-05T17:52:34.719Z,21.56
2022-08-05T17:55:20.753Z,21.48
2022-08-05T17:57:48.650Z,21.49
2022-08-05T18:00:17.246Z,21.52
2022-08-05T18:02:46.764Z,21.50
2022-08-05T18:05:16.656Z,21.48
2022-08-05T18:07:44.440Z,21.44
2022-08-05T18:10:20.591Z,21.39
2022-08-05T18:12:48.644Z,21.26
2022-08-05T18:15:15.153Z,21.17
2022-08-05T18:17:58.958Z,21.08
2022-08-05T18:20:29.227Z,20.93
2022-08-05T18:22:58.326Z,21.07
2022-08-05T18:25:33.163Z,20.82
2022-08-05T18:28:04.676Z,20.76
2022-08-05T18:30:32.267Z,20.66
2022-08-05T18:33:00.269Z,20.55
2022-08-05T18:35:49.383Z,20.49
2022-08-05T18:38:16.411Z,20.33
2022-08-05T18:41:56.289Z,20.12
2022-08-05T18:43:37.984Z,19.88
2022-08-05T18:46:09.964Z,19.61
2022-08-05T18:48:41.768Z,19.41
2022-08-05T18:52:06.652Z,19.18
2022-08-05T18:54:14.294Z,18.93
2022-08-05T18:56:40.823Z,18.74
2022-08-05T18:59:43.838Z,18.57
2022-08-05T19:01:58.226Z,18.41
2022-08-05T19:04:25.193Z,18.24
2022-08-05T19:06:51.825Z,18.13
2022-08-05T19:09:21.197Z,18.01
2022-08-05T19:11:59.502Z,17.86
2022-08-05T19:14:44.944Z,17.79
2022-08-05T19:17:15.827Z,17.66
2022-08-05T19:19:48.542Z,17.55
2022-08-05T19:22:17.301Z,17.49
2022-08-05T19:24:54.500Z,17.41
2022-08-05T19:27:27.732Z,17.32
2022-08-05T19:29:57.248Z,17.29
2022-08-05T19:32:26.106Z,17.23
2022-08-05T19:34:54.518Z,17.22
2022-08-05T19:37:22.761Z,17.19
2022-08-05T19:40:01.892Z,17.22
2022-08-05T19:42:35.536Z,17.19
2022-08-05T19:45:05.679Z,17.22
2022-08-05T19:47:32.989Z,17.23
2022-08-05T19:50:01.076Z,17.19
2022-08-05T19:52:31.385Z,17.21
2022-08-05T19:55:00.366Z,17.19
2022-08-05T19:57:48.865Z,17.12
2022-08-05T20:00:18.658Z,17.07
2022-08-05T20:02:47.433Z,16.99
2022-08-05T20:05:24.122Z,16.93
2022-08-05T20:07:54.985Z,16.83
2022-08-05T20:10:24.492Z,16.74
2022-08-05T20:12:55.066Z,16.63
2022-08-05T20:15:23.220Z,16.69
2022-08-05T20:18:10.922Z,16.46
2022-08-05T20:20:56.722Z,16.34
2022-08-05T20:23:40.502Z,16.24
2022-08-05T20:26:16.097Z,16.16
2022-08-05T20:28:50.136Z,16.07
2022-08-05T20:31:17.488Z,15.98
2022-08-05T20:33:48.466Z,15.91
2022-08-05T20:36:17.845Z,15.88
2022-08-05T20:38:53.384Z,15.82
2022-08-05T20:41:27.066Z,15.76
2022-08-05T20:44:18.489Z,15.72
2022-08-05T20:46:46.442Z,15.69
2022-08-05T20:49:13.880Z,15.63
2022-08-05T20:51:40.468Z,15.60
2022-08-05T20:54:07.068Z,15.54
2022-08-05T20:56:42.533Z,15.51
2022-08-05T20:59:14.086Z,15.49
2022-08-05T21:01:46.248Z,15.46
2022-08-05T21:04:13.602Z,15.42
2022-08-05T21:06:45.132Z,15.39
2022-08-05T21:09:12.499Z,15.38
2022-08-05T21:12:09.066Z,15.35
2022-08-05T21:14:27.624Z,15.34
2022-08-05T21:16:54.917Z,15.33
2022-08-05T21:19:21.377Z,15.32
2022-08-05T21:21:50.756Z,15.30
2022-08-05T21:24:19.526Z,15.23
2022-08-05T21:26:53.642Z,15.23
2022-08-05T21:29:26.694Z,15.19
2022-08-05T21:31:58.789Z,15.14
2022-08-05T21:34:25.232Z,15.11
2022-08-05T21:36:54.907Z,15.09
2022-08-05T21:39:26.824Z,15.06
2022-08-05T21:42:01.107Z,15.07
2022-08-05T21:44:29.507Z,15.06
2022-08-05T21:46:57.984Z,15.06
2022-08-05T21:49:58.858Z,15.06
2022-08-05T21:52:16.118Z,15.07
2022-08-05T21:54:51.126Z,15.07
2022-08-05T21:57:31.483Z,15.05
2022-08-05T22:00:10.823Z,15.08
2022-08-05T22:02:38.438Z,15.08
2022-08-05T22:05:06.022Z,15.06
2022-08-05T22:07:40.428Z,15.01
2022-08-05T22:10:25.510Z,15.03
2022-08-05T22:12:57.444Z,15.01
2022-08-05T22:16:00.285Z,15.11
2022-08-05T22:18:11.144Z,14.99
2022-08-05T22:20:39.112Z,14.95
2022-08-05T22:23:25.439Z,14.93
2022-08-05T22:26:30.541Z,14.90
2022-08-05T22:28:57.250Z,14.86
2022-08-05T22:31:25.029Z,14.83
2022-08-05T22:34:01.579Z,14.82
2022-08-05T22:36:29.054Z,14.79
2022-08-05T22:38:56.204Z,14.76
2022-08-05T22:42:05.429Z,14.73
2022-08-05T22:44:10.260Z,14.70
2022-08-05T22:46:39.780Z,14.67
2022-08-05T22:49:23.452Z,14.63
2022-08-05T22:52:06.607Z,14.60
2022-08-05T22:54:34.860Z,14.56
2022-08-05T22:57:01.489Z,14.52
2022-08-05T22:59:46.265Z,14.48
2022-08-05T23:02:17.425Z,14.44
2022-08-05T23:04:51.405Z,14.37
2022-08-05T23:07:19.419Z,14.36
2022-08-05T23:09:57.782Z,14.32
2022-08-05T23:12:32.413Z,14.29
2022-08-05T23:15:01.352Z,14.24
2022-08-05T23:17:34.060Z,14.26
2022-08-05T23:20:10.487Z,14.26
2022-08-05T23:22:47.850Z,14.26
2022-08-05T23:25:17.663Z,14.24
2022-08-05T23:28:03.421Z,14.23
2022-08-05T23:30:40.369Z,14.20
2022-08-05T23:33:21.871Z,14.17
2022-08-05T23:35:56.059Z,14.16
2022-08-05T23:38:23.505Z,14.12
2022-08-05T23:40:52.714Z,14.09
2022-08-05T23:43:25.206Z,14.05
2022-08-05T23:46:21.440Z,13.99
2022-08-05T23:49:00.895Z,13.95
2022-08-05T23:51:52.337Z,13.92
2022-08-05T23:54:25.648Z,13.86
2022-08-05T23:56:53.926Z,13.82
2022-08-05T23:59:20.494Z,13.76
